Time;durP1;ratioP1;P1;durP2;ratioP2;P2;SDS_P1;SDS_P2;PMS_P1;PMS_P2;Temp;Humidity;BMP_temperature;BMP_pressure;BME280_temperature;BME280_humidity;BME280_pressure;Samples;Min_cycle;Max_cycle;Signal;HPM_P1;HPM_P2
2021/04/12 00:00:59;;;;;;;2.95;2.65;;;7.00;99.90;;;;;;4973937;28;20233;-59
2021/04/12 00:03:31;;;;;;;2.97;2.70;;;7.00;99.90;;;;;;4990583;28;20338;-61
2021/04/12 00:06:09;;;;;;;3.92;3.08;;;7.00;99.90;;;;;;4989752;28;20125;-60
2021/04/12 00:08:53;;;;;;;4.95;3.35;;;7.00;99.90;;;;;;4990334;28;20054;-60
2021/04/12 00:11:47;;;;;;;3.33;2.72;;;7.00;99.90;;;;;;4990170;28;20038;-61
2021/04/12 00:14:37;;;;;;;3.63;2.92;;;7.20;99.90;;;;;;4990161;28;20204;-59
2021/04/12 00:17:18;;;;;;;10.07;3.92;;;7.20;99.90;;;;;;4989323;28;20507;-59
2021/04/12 00:20:04;;;;;;;6.25;2.90;;;7.20;99.90;;;;;;4990085;28;20027;-59
2021/04/12 00:22:47;;;;;;;3.15;2.83;;;7.00;99.90;;;;;;4989939;28;20030;-60
2021/04/12 00:25:17;;;;;;;7.97;3.75;;;7.00;99.90;;;;;;4989859;28;20070;-62
2021/04/12 00:27:49;;;;;;;7.72;3.47;;;7.00;99.90;;;;;;4989520;28;20026;-59
2021/04/12 00:30:20;;;;;;;5.55;3.33;;;7.10;99.90;;;;;;4991991;28;20037;-59
2021/04/12 00:32:49;;;;;;;5.35;3.20;;;7.10;99.90;;;;;;4990907;28;20061;-59
2021/04/12 00:35:17;;;;;;;3.22;2.92;;;7.00;99.90;;;;;;4991859;28;20058;-61
2021/04/12 00:37:49;;;;;;;3.33;2.67;;;7.10;99.90;;;;;;4990071;28;20041;-60
2021/04/12 00:40:20;;;;;;;4.32;3.38;;;7.00;99.90;;;;;;4990589;28;20076;-62
2021/04/12 00:43:21;;;;;;;5.28;2.72;;;6.90;99.90;;;;;;4991991;28;20030;-58
2021/04/12 00:46:14;;;;;;;5.15;3.05;;;7.00;99.90;;;;;;4992381;28;20068;-60
2021/04/12 00:49:13;;;;;;;6.88;3.83;;;7.00;99.90;;;;;;4990879;28;20110;-59
2021/04/12 00:51:55;;;;;;;6.78;3.45;;;6.90;99.90;;;;;;4970037;28;20039;-60
2021/04/12 00:54:54;;;;;;;3.75;2.60;;;6.90;99.90;;;;;;4969830;28;20089;-59
2021/04/12 00:57:49;;;;;;;4.97;3.63;;;6.80;99.90;;;;;;4969906;28;20027;-59
2021/04/12 01:00:30;;;;;;;7.10;3.92;;;6.90;99.90;;;;;;4969786;28;20109;-59
2021/04/12 01:03:04;;;;;;;3.33;2.63;;;7.00;99.90;;;;;;4969139;28;20038;-60
2021/04/12 01:06:01;;;;;;;3.97;2.75;;;7.00;99.90;;;;;;4970011;28;20101;-59
2021/04/12 01:08:35;;;;;;;3.35;2.90;;;6.90;99.90;;;;;;4951457;28;20461;-59
2021/04/12 01:11:21;;;;;;;4.25;2.90;;;7.00;99.90;;;;;;4968981;28;20032;-59
2021/04/12 01:14:01;;;;;;;4.82;2.58;;;7.10;99.90;;;;;;4969199;28;20038;-59
2021/04/12 01:17:00;;;;;;;3.40;2.88;;;7.00;99.90;;;;;;4969726;28;20117;-60
2021/04/12 01:20:24;;;;;;;6.38;2.70;;;6.90;99.90;;;;;;4969613;28;20026;-60
2021/04/12 01:23:08;;;;;;;5.28;2.50;;;7.00;99.90;;;;;;4874405;29;20040;-60
2021/04/12 01:26:11;;;;;;;4.07;2.20;;;7.00;99.90;;;;;;4874584;29;20136;-60
2021/04/12 01:29:01;;;;;;;2.92;2.45;;;7.00;99.90;;;;;;4946430;28;20042;-59
2021/04/12 01:32:05;;;;;;;3.55;3.00;;;7.10;99.90;;;;;;4989739;28;20105;-59
2021/04/12 01:34:49;;;;;;;3.47;2.75;;;7.00;99.90;;;;;;4991028;28;20037;-61
2021/04/12 01:37:18;;;;;;;4.72;2.90;;;6.90;99.90;;;;;;4990006;28;20030;-59
2021/04/12 01:40:13;;;;;;;4.60;2.72;;;6.90;99.90;;;;;;4989375;28;20030;-59
2021/04/12 01:42:44;;;;;;;5.40;3.10;;;6.80;99.90;;;;;;4989655;28;20037;-60
2021/04/12 01:45:47;;;;;;;3.20;2.88;;;6.90;99.90;;;;;;4988721;28;20100;-59
2021/04/12 01:48:39;;;;;;;5.70;2.63;;;6.60;99.90;;;;;;4990504;28;20097;-60
2021/04/12 01:51:33;;;;;;;4.00;2.78;;;6.70;99.90;;;;;;4990396;28;20038;-60
2021/04/12 01:54:29;;;;;;;2.03;1.80;;;6.80;99.90;;;;;;4983414;28;20034;-60
2021/04/12 01:57:31;;;;;;;9.48;3.80;;;6.90;99.90;;;;;;4988737;28;20476;-60
2021/04/12 02:00:15;;;;;;;;;;;6.70;99.90;;;;;;4990992;28;20041;-59
2021/04/12 02:02:59;;;;;;;3.17;1.65;;;6.70;99.90;;;;;;4989255;28;19917;-60
2021/04/12 02:06:14;;;;;;;4.07;2.15;;;6.80;99.90;;;;;;4990924;28;20041;-60
2021/04/12 02:09:16;;;;;;;8.93;2.72;;;6.80;99.90;;;;;;4949504;29;20069;-59
2021/04/12 02:11:53;;;;;;;3.90;2.10;;;6.80;99.90;;;;;;4989278;28;20031;-60
2021/04/12 02:14:46;;;;;;;3.20;1.83;;;6.70;99.90;;;;;;4990179;28;20117;-60
2021/04/12 02:17:23;;;;;;;3.67;2.00;;;6.70;99.90;;;;;;4988724;28;20451;-60
2021/04/12 02:20:08;;;;;;;4.40;2.10;;;6.50;99.90;;;;;;4990582;28;20031;-59
2021/04/12 02:23:00;;;;;;;4.95;2.20;;;6.50;99.90;;;;;;4989370;28;20038;-60
2021/04/12 02:25:32;;;;;;;5.97;2.00;;;6.60;99.90;;;;;;4992458;28;20041;-60
2021/04/12 02:28:25;;;;;;;5.38;2.40;;;6.60;99.90;;;;;;4994158;28;20102;-60
2021/04/12 02:31:37;;;;;;;3.55;1.52;;;6.50;99.90;;;;;;4994810;28;20380;-60
2021/04/12 02:34:09;;;;;;;3.67;2.10;;;6.60;99.90;;;;;;4950900;28;20042;-60
2021/04/12 02:37:00;;;;;;;6.28;2.00;;;6.50;99.90;;;;;;4994260;28;20030;-60
2021/04/12 02:39:50;;;;;;;2.88;1.95;;;6.50;99.90;;;;;;4992959;28;20038;-60
2021/04/12 02:43:02;;;;;;;4.90;2.28;;;6.50;99.90;;;;;;4993542;28;20757;-60
2021/04/12 02:45:49;;;;;;;4.60;2.10;;;6.40;99.90;;;;;;4992519;28;20093;-60
2021/04/12 02:48:30;;;;;;;3.40;2.10;;;6.30;99.90;;;;;;4993774;28;20101;-60
2021/04/12 02:51:03;;;;;;;2.78;1.95;;;6.50;99.90;;;;;;4994047;28;20030;-60
2021/04/12 02:53:56;;;;;;;5.57;2.05;;;6.50;99.90;;;;;;4994106;28;20057;-60
2021/04/12 02:56:44;;;;;;;3.85;2.22;;;6.60;99.90;;;;;;4993767;28;20037;-60
2021/04/12 02:59:40;;;;;;;2.10;1.80;;;6.60;99.90;;;;;;4993081;28;20137;-60
2021/04/12 03:02:46;;;;;;;2.50;2.08;;;6.60;99.90;;;;;;4993437;28;20035;-60
2021/04/12 03:05:24;;;;;;;6.45;2.80;;;6.60;99.90;;;;;;4993144;28;20061;-60
2021/04/12 03:08:04;;;;;;;5.13;2.33;;;6.60;99.90;;;;;;4993491;28;20022;-59
2021/04/12 03:10:58;;;;;;;3.45;2.38;;;6.60;99.90;;;;;;4993673;28;20034;-60
2021/04/12 03:14:04;;;;;;;4.88;2.65;;;6.60;99.90;;;;;;4992521;28;20139;-60
2021/04/12 03:17:11;;;;;;;4.32;2.75;;;6.50;99.90;;;;;;4993563;28;20113;-60
2021/04/12 03:20:11;;;;;;;3.58;2.20;;;6.50;99.90;;;;;;4993630;28;20085;-60
2021/04/12 03:23:06;;;;;;;3.58;2.35;;;6.50;99.90;;;;;;4993574;28;20121;-60
2021/04/12 03:25:50;;;;;;;4.60;2.08;;;6.60;99.90;;;;;;4992301;28;20392;-60
2021/04/12 03:28:27;;;;;;;4.60;2.38;;;6.60;99.90;;;;;;4991445;28;20031;-60
2021/04/12 03:31:02;;;;;;;3.55;2.33;;;6.60;99.90;;;;;;4991879;28;20022;-59
2021/04/12 03:33:44;;;;;;;3.05;1.73;;;6.60;99.90;;;;;;4991788;28;20034;-60
2021/04/12 03:36:36;;;;;;;5.90;2.50;;;6.40;99.90;;;;;;4992437;28;20072;-60
2021/04/12 03:39:20;;;;;;;4.45;2.08;;;6.50;99.90;;;;;;4991109;28;20475;-58
2021/04/12 03:42:18;;;;;;;3.92;1.90;;;6.60;99.90;;;;;;4992701;28;20023;-60
2021/04/12 03:44:47;;;;;;;3.30;2.10;;;6.60;99.90;;;;;;5005503;28;20131;-59
2021/04/12 03:47:57;;;;;;;5.20;2.10;;;6.50;99.90;;;;;;4994278;28;20531;-62
2021/04/12 03:50:53;;;;;;;5.25;2.22;;;6.50;99.90;;;;;;4991834;28;20134;-60
2021/04/12 03:54:14;;;;;;;3.33;2.22;;;6.50;99.90;;;;;;4989746;28;20049;-60
2021/04/12 03:57:17;;;;;;;3.97;2.22;;;6.40;99.90;;;;;;4986903;28;20052;-60
2021/04/12 03:59:54;;;;;;;2.63;2.42;;;6.30;99.90;;;;;;4989999;28;20093;-59
2021/04/12 04:02:52;;;;;;;6.25;2.28;;;6.30;99.90;;;;;;4989642;28;20315;-59
2021/04/12 04:05:43;;;;;;;3.97;2.28;;;6.20;99.90;;;;;;4973334;28;20046;-59
2021/04/12 04:08:30;;;;;;;2.92;1.90;;;6.20;99.90;;;;;;4957066;28;20130;-58
2021/04/12 04:11:20;;;;;;;1.70;1.60;;;6.20;99.90;;;;;;4990101;28;20036;-59
2021/04/12 04:14:01;;;;;;;3.97;1.75;;;6.30;99.90;;;;;;4990134;28;20081;-60
2021/04/12 04:16:53;;;;;;;2.53;1.40;;;6.30;99.90;;;;;;4990126;28;20112;-59
2021/04/12 04:19:22;;;;;;;3.83;1.92;;;6.20;99.90;;;;;;4962355;28;20496;-59
2021/04/12 04:22:25;;;;;;;3.60;1.52;;;6.10;99.90;;;;;;4989592;28;20180;-59
2021/04/12 04:25:45;;;;;;;3.53;1.70;;;6.10;99.90;;;;;;4987528;28;20045;-60
2021/04/12 04:28:38;;;;;;;2.72;1.67;;;6.00;99.90;;;;;;4930753;29;20040;-60
2021/04/12 04:31:34;;;;;;;8.02;2.05;;;6.00;99.90;;;;;;4990845;28;20529;-60
2021/04/12 04:34:26;;;;;;;4.95;2.13;;;6.10;99.90;;;;;;4994032;28;20411;-60
2021/04/12 04:37:03;;;;;;;5.90;2.25;;;6.00;99.90;;;;;;4993942;28;20033;-59
2021/04/12 04:39:55;;;;;;;3.85;1.95;;;6.00;99.90;;;;;;5011361;28;20045;-59
2021/04/12 04:42:46;;;;;;;7.90;2.25;;;6.20;99.90;;;;;;4993136;28;20125;-59
2021/04/12 04:45:18;;;;;;;5.30;2.60;;;6.20;99.90;;;;;;4992820;28;20471;-59
2021/04/12 04:48:02;;;;;;;;;;;6.20;99.90;;;;;;5011182;28;20122;-60
2021/04/12 04:50:48;;;;;;;4.18;2.60;;;6.30;99.90;;;;;;4992845;28;20318;-60
2021/04/12 04:53:29;;;;;;;4.53;2.63;;;6.20;99.90;;;;;;5010815;28;20038;-60
2021/04/12 04:56:03;;;;;;;5.10;2.60;;;6.20;99.90;;;;;;4993695;28;20185;-59
2021/04/12 04:59:08;;;;;;;5.30;3.00;;;6.20;99.90;;;;;;4993394;28;20104;-60
2021/04/12 05:01:56;;;;;;;5.28;2.83;;;6.30;99.90;;;;;;4970759;28;20045;-58
2021/04/12 05:04:28;;;;;;;4.10;3.15;;;6.30;99.90;;;;;;4955060;28;20042;-59
2021/04/12 05:07:23;;;;;;;4.68;2.88;;;6.20;99.90;;;;;;4993344;28;20095;-59
2021/04/12 05:10:19;;;;;;;6.20;3.50;;;6.20;99.90;;;;;;5010918;28;20064;-59
2021/04/12 05:12:53;;;;;;;5.78;3.25;;;6.30;99.90;;;;;;5010859;28;20458;-59
2021/04/12 05:15:24;;;;;;;7.57;4.13;;;6.20;99.90;;;;;;5009889;28;20406;-60
2021/04/12 05:18:19;;;;;;;8.73;4.13;;;6.20;99.90;;;;;;4993121;28;20037;-59
2021/04/12 05:20:59;;;;;;;9.40;3.63;;;6.20;99.90;;;;;;4993115;28;20410;-59
2021/04/12 05:23:39;;;;;;;9.60;4.00;;;6.00;99.90;;;;;;4992174;28;20061;-59
2021/04/12 05:26:48;;;;;;;8.40;4.20;;;6.00;99.90;;;;;;5010322;28;20048;-59
2021/04/12 05:29:52;;;;;;;10.98;5.38;;;6.10;99.90;;;;;;4955922;28;20460;-60
2021/04/12 05:32:39;;;;;;;10.20;5.40;;;6.20;99.90;;;;;;4992902;28;20022;-60
2021/04/12 05:35:31;;;;;;;10.65;5.43;;;6.30;99.90;;;;;;4993478;28;20038;-60
2021/04/12 05:38:29;;;;;;;9.15;4.50;;;6.40;99.90;;;;;;4993315;28;20030;-60
2021/04/12 05:40:58;;;;;;;7.18;4.80;;;6.30;99.90;;;;;;4993078;28;20096;-60
2021/04/12 05:43:47;;;;;;;11.57;5.00;;;6.50;99.90;;;;;;5010012;28;20101;-60
2021/04/12 05:46:24;;;;;;;6.72;4.38;;;6.40;99.90;;;;;;5009959;28;20037;-60
2021/04/12 05:49:27;;;;;;;7.32;4.95;;;6.30;99.90;;;;;;5011342;28;20072;-60
2021/04/12 05:52:20;;;;;;;11.88;6.38;;;6.50;99.90;;;;;;4992624;28;20117;-60
2021/04/12 05:55:04;;;;;;;6.97;4.78;;;6.50;99.90;;;;;;5010396;28;20474;-60
2021/04/12 05:57:58;;;;;;;11.27;5.65;;;6.50;99.90;;;;;;4992205;28;20100;-60
2021/04/12 06:00:30;;;;;;;9.98;4.88;;;6.60;99.90;;;;;;5009725;28;20022;-60
2021/04/12 06:03:12;;;;;;;7.38;4.78;;;6.70;99.90;;;;;;4992713;28;20029;-59
2021/04/12 06:06:08;;;;;;;13.68;4.88;;;6.80;99.90;;;;;;5010223;28;20061;-60
2021/04/12 06:08:51;;;;;;;11.43;5.22;;;6.80;99.90;;;;;;4960677;28;20129;-60
2021/04/12 06:11:30;;;;;;;8.15;4.32;;;6.80;99.90;;;;;;4971119;28;20480;-60
2021/04/12 06:14:23;;;;;;;21.77;5.55;;;6.80;99.90;;;;;;4971855;28;20045;-60
2021/04/12 06:17:19;;;;;;;14.82;4.47;;;6.90;99.90;;;;;;4972142;28;20053;-60
2021/04/12 06:20:13;;;;;;;10.98;4.07;;;6.90;99.90;;;;;;4971729;28;20034;-60
2021/04/12 06:22:44;;;;;;;10.82;4.80;;;7.00;99.90;;;;;;4971718;28;20073;-60
2021/04/12 06:25:34;;;;;;;6.40;3.45;;;7.00;99.90;;;;;;4987543;28;20030;-59
2021/04/12 06:28:44;;;;;;;7.78;3.10;;;7.10;99.90;;;;;;4987918;28;20056;-61
2021/04/12 06:31:54;;;;;;;4.40;3.15;;;7.00;99.50;;;;;;4987603;28;20041;-64
2021/04/12 06:34:44;;;;;;;7.38;3.45;;;6.80;99.90;;;;;;4970855;28;20092;-60
2021/04/12 06:37:37;;;;;;;6.63;3.80;;;6.80;99.90;;;;;;4987403;28;20129;-62
2021/04/12 06:40:47;;;;;;;8.27;3.50;;;7.10;99.90;;;;;;5002804;28;20081;-61
2021/04/12 06:43:47;;;;;;;3.90;3.05;;;7.20;99.70;;;;;;4971385;28;20030;-60
2021/04/12 06:46:47;;;;;;;10.40;2.70;;;7.00;99.10;;;;;;4991989;28;20030;-62
2021/04/12 06:49:31;;;;;;;5.53;2.72;;;7.20;99.10;;;;;;4992029;28;20470;-61
2021/04/12 06:52:34;;;;;;;6.07;2.50;;;7.30;98.90;;;;;;4993021;28;20328;-60
2021/04/12 06:55:22;;;;;;;4.55;2.58;;;7.10;98.90;;;;;;4992574;28;20092;-60
2021/04/12 06:58:08;;;;;;;7.68;2.55;;;7.20;98.70;;;;;;5010157;28;20097;-60
2021/04/12 07:00:37;;;;;;;4.68;2.67;;;7.00;98.70;;;;;;4992250;28;20026;-60
2021/04/12 07:03:53;;;;;;;8.43;2.95;;;7.20;98.50;;;;;;5010356;28;20115;-60
2021/04/12 07:06:43;;;;;;;5.05;2.30;;;7.10;98.40;;;;;;4968082;28;20078;-60
2021/04/12 07:09:27;;;;;;;3.88;2.08;;;7.30;98.10;;;;;;4952457;28;20535;-60
2021/04/12 07:12:09;;;;;;;8.35;2.83;;;7.30;97.90;;;;;;4955524;28;20027;-59
2021/04/12 07:14:53;;;;;;;5.55;2.05;;;7.40;97.60;;;;;;4971196;28;20456;-59
2021/04/12 07:17:53;;;;;;;5.80;1.92;;;7.60;97.20;;;;;;4954683;28;20133;-59
2021/04/12 07:20:27;;;;;;;4.63;1.58;;;7.60;96.70;;;;;;4970678;28;20042;-60
2021/04/12 07:23:19;;;;;;;5.47;1.60;;;7.60;96.10;;;;;;4971537;28;20035;-60
2021/04/12 07:25:59;;;;;;;5.88;2.20;;;7.90;96.10;;;;;;4971769;28;20456;-60
2021/04/12 07:28:43;;;;;;;9.57;1.73;;;8.20;95.70;;;;;;4954694;28;20035;-60
2021/04/12 07:31:36;;;;;;;5.72;1.58;;;8.70;94.40;;;;;;4971299;28;20054;-60
2021/04/12 07:34:40;;;;;;;2.80;1.15;;;9.00;94.00;;;;;;4955109;28;20031;-60
2021/04/12 07:37:29;;;;;;;3.95;1.70;;;9.30;94.20;;;;;;4987343;28;20484;-61
2021/04/12 07:40:25;;;;;;;4.75;2.15;;;9.40;93.40;;;;;;5012701;28;20045;-60
2021/04/12 07:42:57;;;;;;;4.70;1.88;;;9.30;93.10;;;;;;5012346;28;20427;-60
2021/04/12 07:45:53;;;;;;;;;;;9.60;92.40;;;;;;4993844;28;20089;-59
2021/04/12 07:48:58;;;;;;;7.25;1.38;;;9.70;92.40;;;;;;5011415;28;19989;-60
2021/04/12 07:51:45;;;;;;;3.40;1.58;;;9.40;92.20;;;;;;5011622;28;20551;-61
2021/04/12 07:54:48;;;;;;;4.45;1.55;;;9.10;92.50;;;;;;4990412;28;20105;-61
2021/04/12 07:57:44;;;;;;;3.42;1.10;;;9.30;92.30;;;;;;4989942;28;20033;-61
2021/04/12 08:00:32;;;;;;;2.50;0.77;;;9.30;91.00;;;;;;4989959;28;20071;-60
2021/04/12 08:03:16;;;;;;;2.53;0.90;;;9.80;91.20;;;;;;4987504;28;20611;-61
2021/04/12 08:06:28;;;;;;;4.07;0.77;;;10.00;91.30;;;;;;4987131;28;20133;-67
2021/04/12 08:08:54;;;;;;;4.40;1.23;;;10.90;99.60;;;;;;4935147;28;20126;-69
2021/04/12 08:11:28;;;;;;;2.58;0.38;;;11.20;97.50;;;;;;4969264;28;20542;-68
2021/04/12 08:14:12;;;;;;;1.63;0.68;;;11.50;94.50;;;;;;4970124;28;20487;-68
2021/04/12 08:16:38;;;;;;;5.80;1.38;;;11.90;94.90;;;;;;4977698;28;20026;-69
2021/04/12 08:19:21;;;;;;;4.63;1.20;;;12.30;92.20;;;;;;4989258;28;20039;-60
2021/04/12 08:22:07;;;;;;;3.20;0.73;;;11.50;81.10;;;;;;4988304;28;20030;-60
2021/04/12 08:25:06;;;;;;;3.80;1.48;;;11.00;81.50;;;;;;4990226;28;20030;-59
2021/04/12 08:28:03;;;;;;;4.85;1.30;;;10.40;82.10;;;;;;5010601;28;20115;-60
2021/04/12 08:30:48;;;;;;;3.42;0.90;;;10.10;86.70;;;;;;5007241;28;20072;-62
2021/04/12 08:33:41;;;;;;;6.07;1.00;;;10.30;87.90;;;;;;4992837;28;20356;-60
2021/04/12 08:36:28;;;;;;;4.75;1.55;;;9.90;89.30;;;;;;4988172;28;20035;-62
2021/04/12 08:39:11;;;;;;;3.88;1.20;;;10.10;89.60;;;;;;4968362;28;20070;-61
2021/04/12 08:41:40;;;;;;;2.47;1.25;;;10.10;89.00;;;;;;4954419;28;20133;-60
2021/04/12 08:44:29;;;;;;;2.00;1.10;;;9.80;88.70;;;;;;4961572;28;20070;-60
2021/04/12 08:47:25;;;;;;;3.10;1.05;;;10.00;88.90;;;;;;4988485;28;20030;-62
2021/04/12 08:50:10;;;;;;;3.08;1.13;;;9.90;85.80;;;;;;4984691;28;20124;-61
2021/04/12 08:53:00;;;;;;;3.35;1.23;;;10.10;84.90;;;;;;4971912;28;20066;-60
2021/04/12 08:55:49;;;;;;;6.20;1.85;;;10.30;85.60;;;;;;4969941;28;20409;-60
2021/04/12 08:58:23;;;;;;;4.43;1.40;;;10.40;87.30;;;;;;4984312;28;20045;-59
2021/04/12 09:01:09;;;;;;;3.70;2.13;;;10.30;85.70;;;;;;4987431;28;20125;-61
2021/04/12 09:04:09;;;;;;;8.95;2.08;;;10.10;84.90;;;;;;4987400;28;20042;-62
2021/04/12 09:07:12;;;;;;;4.22;1.98;;;10.00;85.40;;;;;;4992857;28;20049;-60
2021/04/12 09:10:09;;;;;;;2.92;1.60;;;10.00;84.30;;;;;;4991871;28;20091;-61
2021/04/12 09:12:50;;;;;;;3.15;1.75;;;9.90;84.40;;;;;;4991585;28;20026;-61
2021/04/12 09:15:33;;;;;;;4.20;2.00;;;9.70;83.20;;;;;;4992849;28;20388;-61
2021/04/12 09:18:11;;;;;;;4.15;1.90;;;9.20;84.80;;;;;;5011274;28;20087;-60
2021/04/12 09:20:39;;;;;;;5.97;1.88;;;9.30;84.30;;;;;;5010364;28;20459;-62
2021/04/12 09:23:51;;;;;;;6.47;2.17;;;9.50;84.00;;;;;;4991566;28;20026;-67
2021/04/12 09:26:47;;;;;;;5.30;3.00;;;9.60;83.50;;;;;;5009521;28;20049;-63
2021/04/12 09:29:27;;;;;;;5.10;2.67;;;9.10;85.10;;;;;;5009791;28;20487;-62
2021/04/12 09:32:19;;;;;;;3.50;2.08;;;9.10;84.60;;;;;;5009326;28;20029;-63
2021/04/12 09:34:53;;;;;;;2.90;1.90;;;9.10;83.70;;;;;;4998215;28;20044;-61
2021/04/12 09:37:38;;;;;;;3.63;2.25;;;9.30;80.50;;;;;;5008988;28;20061;-62
2021/04/12 09:40:22;;;;;;;4.32;1.83;;;9.60;79.80;;;;;;5009699;28;20053;-62
2021/04/12 09:43:06;;;;;;;3.90;2.05;;;9.50;77.00;;;;;;4992457;28;20026;-62
2021/04/12 09:46:19;;;;;;;6.10;3.20;;;10.50;77.90;;;;;;4991492;28;20144;-65
2021/04/12 09:49:08;;;;;;;5.65;2.47;;;11.50;74.50;;;;;;4992644;28;20332;-60
2021/04/12 09:51:42;;;;;;;5.03;2.15;;;12.30;69.60;;;;;;5009406;28;20076;-62
2021/04/12 09:54:21;;;;;;;4.15;1.80;;;;;;;;;;4992626;28;20143;-61
2021/04/12 09:57:09;;;;;;;2.15;1.95;;;13.40;63.30;;;;;;4992609;28;20533;-62
2021/04/12 10:00:00;;;;;;;4.43;2.42;;;12.40;67.10;;;;;;4991799;28;20029;-61
2021/04/12 10:03:03;;;;;;;6.38;2.55;;;13.10;68.20;;;;;;4991558;28;20025;-62
2021/04/12 10:05:59;;;;;;;7.18;3.50;;;13.10;65.10;;;;;;5009192;28;20068;-60
2021/04/12 10:08:32;;;;;;;8.85;3.35;;;12.60;93.60;;;;;;4991746;28;20395;-60
2021/04/12 10:11:00;;;;;;;5.05;3.20;;;12.80;82.90;;;;;;4992402;28;20060;-61
2021/04/12 10:13:54;;;;;;;4.68;2.35;;;12.10;70.90;;;;;;4991792;28;20420;-60
2021/04/12 10:16:35;;;;;;;5.30;3.63;;;11.40;69.50;;;;;;5009783;28;20022;-61
2021/04/12 10:19:21;;;;;;;8.27;3.78;;;11.60;69.50;;;;;;4992466;28;20021;-59
2021/04/12 10:22:12;;;;;;;6.38;3.55;;;12.50;68.10;;;;;;5010048;28;20491;-59
2021/04/12 10:24:44;;;;;;;6.15;2.53;;;13.20;64.00;;;;;;4977858;28;20132;-59
2021/04/12 10:27:27;;;;;;;3.45;2.60;;;12.50;62.60;;;;;;4992291;28;20037;-59
2021/04/12 10:30:04;;;;;;;4.90;2.63;;;12.30;63.10;;;;;;5010105;28;20029;-59
2021/04/12 10:32:39;;;;;;;4.50;2.70;;;12.40;63.50;;;;;;5007699;28;20401;-59
2021/04/12 10:35:15;;;;;;;5.28;2.90;;;12.80;64.30;;;;;;5009894;28;20030;-58
2021/04/12 10:37:58;;;;;;;3.38;2.83;;;13.90;63.00;;;;;;5009430;28;20022;-60
2021/04/12 10:40:28;;;;;;;2.83;1.83;;;14.80;58.60;;;;;;5009246;28;20482;-61
2021/04/12 10:43:19;;;;;;;2.88;1.73;;;15.30;55.20;;;;;;5010127;28;20022;-60
2021/04/12 10:45:50;;;;;;;12.82;2.20;;;14.90;53.50;;;;;;5010049;28;20050;-60
2021/04/12 10:48:15;;;;;;;2.47;1.00;;;15.10;54.60;;;;;;5013170;28;20026;-60
2021/04/12 10:50:41;;;;;;;3.15;1.50;;;14.70;54.20;;;;;;5013141;28;20033;-60
2021/04/12 10:53:31;;;;;;;4.90;1.90;;;13.50;54.10;;;;;;5013519;28;20034;-60
2021/04/12 10:56:22;;;;;;;5.72;1.70;;;13.20;56.70;;;;;;4995579;28;20065;-59
2021/04/12 10:59:02;;;;;;;12.38;1.52;;;13.00;55.90;;;;;;4958448;28;20034;-59
2021/04/12 11:02:02;;;;;;;5.43;2.25;;;12.80;58.10;;;;;;4994029;28;20329;-58
2021/04/12 11:04:42;;;;;;;3.08;1.63;;;12.70;56.70;;;;;;4927331;28;20054;-59
2021/04/12 11:08:05;;;;;;;2.28;1.38;;;13.60;53.30;;;;;;4994525;28;20034;-59
2021/04/12 11:10:52;;;;;;;1.73;1.00;;;14.60;53.10;;;;;;4940894;29;20362;-60
2021/04/12 11:13:34;;;;;;;2.85;1.17;;;14.20;52.10;;;;;;4984562;28;20026;-59
2021/04/12 11:16:37;;;;;;;4.70;2.50;;;13.60;51.00;;;;;;5010295;28;20353;-61
2021/04/12 11:19:10;;;;;;;3.13;1.65;;;13.20;54.90;;;;;;5010309;28;20049;-60
2021/04/12 11:22:06;;;;;;;5.85;2.22;;;13.00;56.30;;;;;;5031813;28;20458;-62
2021/04/12 11:24:49;;;;;;;2.72;2.08;;;12.40;56.20;;;;;;5013801;28;20368;-60
2021/04/12 11:27:48;;;;;;;5.15;2.80;;;12.10;56.60;;;;;;5032353;28;20355;-61
2021/04/12 11:30:53;;;;;;;7.88;2.78;;;11.50;57.50;;;;;;5014547;28;20093;-62
2021/04/12 11:33:31;;;;;;;5.07;2.60;;;11.40;58.80;;;;;;5014352;28;20124;-58
2021/04/12 11:36:21;;;;;;;4.68;2.05;;;11.10;60.30;;;;;;5014377;28;20029;-59
2021/04/12 11:39:05;;;;;;;5.35;3.20;;;11.10;60.60;;;;;;5013634;28;20586;-59
2021/04/12 11:41:54;;;;;;;3.13;2.03;;;10.90;62.50;;;;;;5031389;28;20049;-59
2021/04/12 11:44:37;;;;;;;3.90;2.08;;;11.00;59.90;;;;;;5031131;28;20068;-60
2021/04/12 11:47:27;;;;;;;2.83;2.30;;;11.60;59.60;;;;;;5032028;28;20041;-59
2021/04/12 11:50:11;;;;;;;3.30;1.60;;;12.70;58.90;;;;;;5013416;28;20525;-59
2021/04/12 11:53:06;;;;;;;6.25;2.15;;;13.30;54.60;;;;;;5030985;28;20087;-60
2021/04/12 11:55:38;;;;;;;3.13;1.40;;;13.40;55.10;;;;;;5005846;28;20037;-60
2021/04/12 11:58:15;;;;;;;3.13;0.93;;;14.00;52.60;;;;;;5031615;28;20025;-59
2021/04/12 12:00:50;;;;;;;5.78;1.40;;;13.80;51.30;;;;;;5012900;28;20141;-58
2021/04/12 12:03:53;;;;;;;1.88;1.20;;;14.30;50.90;;;;;;5013832;28;20116;-59
2021/04/12 12:06:40;;;;;;;2.88;1.40;;;14.40;49.70;;;;;;5024218;28;20142;-59
2021/04/12 12:09:29;;;;;;;1.45;0.98;;;13.60;49.40;;;;;;4996421;28;20038;-60
2021/04/12 12:12:09;;;;;;;2.75;1.10;;;12.70;50.70;;;;;;4975083;28;20120;-61
2021/04/12 12:14:41;;;;;;;2.95;1.40;;;12.30;52.10;;;;;;4987728;28;20034;-61
2021/04/12 12:17:19;;;;;;;2.95;1.67;;;12.10;53.50;;;;;;4974373;28;20074;-59
2021/04/12 12:19:51;;;;;;;4.47;1.35;;;12.00;54.00;;;;;;4976399;28;20460;-59
2021/04/12 12:22:23;;;;;;;6.47;1.33;;;12.30;53.70;;;;;;4982508;28;20326;-60
2021/04/12 12:24:55;;;;;;;6.43;2.00;;;13.60;55.10;;;;;;5009596;28;20030;-58
2021/04/12 12:27:33;;;;;;;;;;;14.10;52.10;;;;;;4983131;28;20034;-58
2021/04/12 12:30:12;;;;;;;2.75;1.08;;;14.30;51.70;;;;;;4978492;28;19912;-59
2021/04/12 12:32:38;;;;;;;2.78;1.30;;;13.90;50.60;;;;;;4992059;28;20041;-59
2021/04/12 12:35:34;;;;;;;2.47;1.35;;;13.20;51.90;;;;;;4974302;28;20031;-59
2021/04/12 12:38:14;;;;;;;3.83;1.75;;;13.40;52.10;;;;;;4986882;28;20207;-61
2021/04/12 12:40:59;;;;;;;2.30;1.42;;;13.70;52.60;;;;;;4987975;28;20115;-59
2021/04/12 12:43:31;;;;;;;1.40;1.20;;;14.30;52.30;;;;;;5003373;28;20022;-59
2021/04/12 12:46:10;;;;;;;5.72;1.27;;;14.70;52.10;;;;;;4972182;28;20153;-59
2021/04/12 12:48:46;;;;;;;1.55;1.10;;;14.40;50.60;;;;;;4972070;28;20034;-60
2021/04/12 12:51:21;;;;;;;2.28;1.30;;;13.90;50.70;;;;;;4990621;28;20022;-61
2021/04/12 12:53:50;;;;;;;1.67;1.08;;;13.50;52.10;;;;;;4991812;28;20126;-58
2021/04/12 12:56:20;;;;;;;2.28;1.10;;;13.60;51.00;;;;;;4993244;28;20123;-61
2021/04/12 12:59:24;;;;;;;3.72;0.90;;;13.60;51.90;;;;;;4977451;28;20061;-60
2021/04/12 13:01:50;;;;;;;1.52;1.40;;;12.90;51.90;;;;;;4971842;28;20031;-61
2021/04/12 13:04:24;;;;;;;4.63;0.88;;;12.50;52.90;;;;;;4972805;28;20046;-60
2021/04/12 13:06:53;;;;;;;2.60;0.82;;;12.80;52.80;;;;;;4989413;28;20030;-59
2021/04/12 13:09:32;;;;;;;1.67;0.80;;;12.70;53.40;;;;;;4983745;28;20113;-60
2021/04/12 13:12:12;;;;;;;1.02;0.68;;;12.70;52.70;;;;;;4988793;28;20360;-59
2021/04/12 13:14:43;;;;;;;2.63;0.60;;;12.60;53.20;;;;;;4975289;28;20417;-59
2021/04/12 13:17:25;;;;;;;1.38;0.50;;;12.50;55.10;;;;;;4977012;28;20042;-60
2021/04/12 13:20:00;;;;;;;4.82;0.93;;;12.80;54.00;;;;;;4981513;28;20030;-62
2021/04/12 13:22:32;;;;;;;1.85;1.00;;;13.50;60.60;;;;;;4999061;28;20031;-59
2021/04/12 13:25:21;;;;;;;1.33;0.68;;;14.30;54.00;;;;;;4975383;28;20039;-58
2021/04/12 13:27:56;;;;;;;1.60;0.95;;;13.90;52.10;;;;;;4984724;28;20116;-59
2021/04/12 13:30:25;;;;;;;1.13;0.52;;;13.70;52.20;;;;;;4992933;28;20052;-59
2021/04/12 13:32:53;;;;;;;4.40;0.77;;;13.70;53.40;;;;;;4991392;28;20030;-59
2021/04/12 13:35:22;;;;;;;2.15;1.45;;;13.50;55.30;;;;;;5010113;28;20101;-60
2021/04/12 13:37:51;;;;;;;4.40;1.48;;;14.10;58.70;;;;;;5009233;28;20109;-60
2021/04/12 13:40:37;;;;;;;1.92;1.02;;;13.80;60.00;;;;;;4992627;28;20053;-59
2021/04/12 13:43:07;;;;;;;3.17;1.10;;;13.50;61.90;;;;;;5010885;28;20037;-58
2021/04/12 13:45:42;;;;;;;0.88;0.82;;;12.80;65.00;;;;;;4991558;28;20053;-58
2021/04/12 13:48:08;;;;;;;5.53;1.73;;;12.50;67.30;;;;;;4993267;28;20029;-58
2021/04/12 13:50:48;;;;;;;5.47;1.88;;;12.30;69.00;;;;;;4992412;28;20026;-59
2021/04/12 13:53:19;;;;;;;2.65;1.60;;;12.40;68.90;;;;;;5010260;28;20084;-59
2021/04/12 13:55:53;;;;;;;3.65;1.70;;;12.30;69.30;;;;;;5010322;28;20026;-59
2021/04/12 13:58:33;;;;;;;5.30;1.95;;;12.20;70.30;;;;;;4993062;28;20041;-58
2021/04/12 14:01:02;;;;;;;2.28;1.48;;;11.90;70.40;;;;;;4992718;28;20025;-58
2021/04/12 14:03:38;;;;;;;9.57;2.80;;;11.70;70.80;;;;;;5010773;28;20137;-59
2021/04/12 14:06:08;;;;;;;8.07;2.00;;;11.70;71.20;;;;;;4993085;28;20033;-59
2021/04/12 14:08:42;;;;;;;2.17;1.15;;;11.10;73.10;;;;;;4992404;28;20026;-60
2021/04/12 14:11:23;;;;;;;1.52;1.10;;;11.20;72.70;;;;;;5010652;28;20041;-58
2021/04/12 14:13:54;;;;;;;4.15;1.88;;;11.40;72.80;;;;;;4998997;28;20030;-47
2021/04/12 14:16:26;;;;;;;1.20;1.10;;;12.90;99.90;;;;;;5008386;28;20028;-62
2021/04/12 14:19:09;;;;;;;1.67;1.10;;;12.10;82.60;;;;;;5011627;28;20307;-59
2021/04/12 14:21:37;;;;;;;3.28;1.35;;;11.80;79.90;;;;;;5013164;28;20037;-61
2021/04/12 14:24:26;;;;;;;8.23;1.65;;;10.80;84.00;;;;;;5032450;28;20056;-60
2021/04/12 14:27:00;;;;;;;2.28;2.05;;;10.40;83.90;;;;;;5013599;28;20040;-59
2021/04/12 14:29:35;;;;;;;12.43;2.28;;;10.60;83.50;;;;;;5014394;28;20492;-58